< < Back
Terminal Aerodrome Forecast


Current Version              Previous Versions:   1  2  3  4  5  6  7  8  9  

Terminal Aerodrome Forecast

858
FTUS42 KJAX 291721
TAFSSI
TAF
KSSI 291721Z 2918/3018 09004KT P6SM BKN250
     FM291900 13006KT P6SM BKN250
     FM300200 20005KT P6SM BKN250
     FM300900 24007KT P6SM BKN100 OVC250
     FM301100 26009KT P6SM BKN025 OVC050
     FM301200 27010G17KT P6SM VCSH OVC015
     FM301500 30012G19KT P6SM BKN025=



Latest METAR

166
SAUS70 KWBC 301100 RRD
MTRSSI
METAR KSSI 301053Z AUTO 24006KT 10SM FEW028 SCT060 OVC075 11/08 A3010
RMK AO2 SLP194 T01060078


USA.gov is the U.S. government's official web portal to all federal, state and local government web resources and services.